Huvudsida
METAR-TAF:

METAR-TAF

Flygplatser :

Pskov, Ryssland

latitud: 57-47-06N, longitud: 028-23-54E, höjd: 47 m

Aktuellt väderrapport

Denna rapport gjordes för 1 timme och 15 minuter sedan, klockan 02:00 UTC
Vind 6 kt från sydost
Temperatur -2°C
Fuktighet 93%
Tryck 1002 hPa
Sikt: 6000 m

METAR: ULOO 190200Z AUTO 13003MPS 6000 // ///009/// M02/M03 Q1002 RMK QFE747

Tid: 06:15 (03:15 UTC)

Väderprognos

Denna rapport gjordes för 16 timmar och 19 minuter sedan, klockan 10:56 UTC
Prognos gäller från 18 kl. 12 UTC till 18 kl. 21 UTC
Vind 6 kt från sydost i byarna ända upp till 16 kt
Sikt: 6000 m
Brutna moln på en höjd av 1100 ft
Mulet på en höjd av 1500 ft
Temporärt
från 18 kl. 12 UTC till 18 kl. 21 UTC
Vind 6 kt från syd/sydost i byarna ända upp till 16 kt
Sikt: 3100 m
Brutna moln på en höjd av 800 ft
Brutna moln på en höjd av 1500 ft, Cumulonimbus.
lätta snöbyar

TAF: ULOO 181056Z 1812/1821 14003G08MPS 6000 BKN011 OVC015 TEMPO 1812/1821 16003G08MPS 3100 -SHSN BKN008 BKN015CB

Aktuella väderrapporter och prognoser från 4000 flygplatser (METAR- och TAF-rapporter).

De tillgängliga stationerna syns som gula och röda prickar på kartan.

För musen över prickarna för att se namnen på stationerna.

Klicka sedan för att få väderrapporter och prognoser.

För att ändra kartan: Klicka på de gröna knapparna med ett svart kors på för att zooma in; den gröna knappen med ett streck på för att zooma ut; eller på de gröna pilarna för angränsande kartor.


METAR-TAF: